createdAt,value
2018-08-28T00:00:16.058Z,17.20
2018-08-28T00:02:44.676Z,17.10
2018-08-28T00:05:13.290Z,17.10
2018-08-28T00:07:41.862Z,16.90
2018-08-28T00:10:10.416Z,16.90
2018-08-28T00:12:38.972Z,16.80
2018-08-28T00:15:07.752Z,17.10
2018-08-28T00:17:37.077Z,16.90
2018-08-28T00:20:05.992Z,16.80
2018-08-28T00:22:35.190Z,16.90
2018-08-28T00:25:03.874Z,17.10
2018-08-28T00:27:32.452Z,17.00
2018-08-28T00:30:00.968Z,16.80
2018-08-28T00:32:29.510Z,16.80
2018-08-28T00:34:58.092Z,16.90
2018-08-28T00:37:27.248Z,16.90
2018-08-28T00:39:56.058Z,17.00
2018-08-28T00:42:24.836Z,17.10
2018-08-28T00:44:54.396Z,17.20
2018-08-28T00:47:23.009Z,17.00
2018-08-28T00:49:51.956Z,16.80
2018-08-28T00:52:20.671Z,16.70
2018-08-28T00:54:49.640Z,16.70
2018-08-28T00:57:18.173Z,16.50
2018-08-28T00:59:46.731Z,16.40
2018-08-28T01:02:15.321Z,16.40
2018-08-28T01:04:44.098Z,16.30
2018-08-28T01:07:12.835Z,16.30
2018-08-28T01:09:41.389Z,16.30
2018-08-28T01:12:09.937Z,16.50
2018-08-28T01:14:38.619Z,16.20
2018-08-28T01:17:07.134Z,16.20
2018-08-28T01:19:35.856Z,16.20
2018-08-28T01:22:04.591Z,16.20
2018-08-28T01:24:33.200Z,16.20
2018-08-28T01:27:01.917Z,16.50
2018-08-28T01:29:30.519Z,16.40
2018-08-28T01:31:59.005Z,16.50
2018-08-28T01:34:27.574Z,16.50
2018-08-28T01:36:56.323Z,16.30
2018-08-28T01:39:24.894Z,16.30
2018-08-28T01:41:53.405Z,16.20
2018-08-28T01:44:21.983Z,16.20
2018-08-28T01:46:50.913Z,16.20
2018-08-28T01:49:19.464Z,16.20
2018-08-28T01:51:48.095Z,16.10
2018-08-28T01:54:16.785Z,16.20
2018-08-28T01:56:45.344Z,16.10
2018-08-28T01:59:13.905Z,16.10
2018-08-28T02:01:42.546Z,16.10
2018-08-28T02:04:11.114Z,16.40
2018-08-28T02:06:39.631Z,16.40
2018-08-28T02:09:08.252Z,16.30
2018-08-28T02:11:36.816Z,16.20
2018-08-28T02:14:05.389Z,16.30
2018-08-28T02:16:33.945Z,16.40
2018-08-28T02:19:02.998Z,16.60
2018-08-28T02:21:31.651Z,16.40
2018-08-28T02:24:00.592Z,16.20
2018-08-28T02:26:29.185Z,16.40
2018-08-28T02:28:57.712Z,16.50
2018-08-28T02:31:26.334Z,16.60
2018-08-28T02:33:55.227Z,16.70
2018-08-28T02:36:23.994Z,16.90
2018-08-28T02:38:52.488Z,16.90
2018-08-28T02:41:21.206Z,16.70
2018-08-28T02:43:49.864Z,16.60
2018-08-28T02:46:18.552Z,16.60
2018-08-28T02:48:47.102Z,16.80
2018-08-28T02:51:16.101Z,16.70
2018-08-28T02:53:44.649Z,16.70
2018-08-28T02:56:13.454Z,16.80
2018-08-28T02:58:41.909Z,16.80
2018-08-28T03:01:10.651Z,16.80
2018-08-28T03:03:39.203Z,16.70
2018-08-28T03:06:07.915Z,16.50
2018-08-28T03:08:36.671Z,16.50
2018-08-28T03:11:05.307Z,16.50
2018-08-28T03:13:34.013Z,16.50
2018-08-28T03:16:03.100Z,16.50
2018-08-28T03:18:31.947Z,16.50
2018-08-28T03:21:00.646Z,16.40
2018-08-28T03:23:29.223Z,16.40
2018-08-28T03:25:57.799Z,16.40
2018-08-28T03:28:26.621Z,16.40
2018-08-28T03:30:55.211Z,16.30
2018-08-28T03:33:23.809Z,16.40
2018-08-28T03:35:52.561Z,16.40
2018-08-28T03:38:21.107Z,16.50
2018-08-28T03:40:49.953Z,16.70
2018-08-28T03:43:19.231Z,16.80
2018-08-28T03:45:48.354Z,16.70
2018-08-28T03:48:16.965Z,16.50
2018-08-28T03:50:46.615Z,16.60
2018-08-28T03:53:15.641Z,16.70
2018-08-28T03:55:44.206Z,16.90
2018-08-28T03:58:14.085Z,16.80
2018-08-28T04:00:42.901Z,16.70
2018-08-28T04:03:12.021Z,16.60
2018-08-28T04:05:40.874Z,16.70
2018-08-28T04:08:09.414Z,16.70
2018-08-28T04:10:38.270Z,16.50
2018-08-28T04:13:07.244Z,16.30
2018-08-28T04:15:36.529Z,16.20
2018-08-28T04:18:05.299Z,16.10
2018-08-28T04:20:33.847Z,16.30
2018-08-28T04:23:04.414Z,16.10
2018-08-28T04:25:32.955Z,16.10
2018-08-28T04:28:01.626Z,16.20
2018-08-28T04:30:30.249Z,16.10
2018-08-28T04:32:59.099Z,15.90
2018-08-28T04:35:27.699Z,15.90
2018-08-28T04:37:56.424Z,15.90
2018-08-28T04:40:25.233Z,15.90
2018-08-28T04:42:54.248Z,15.80
2018-08-28T04:45:23.361Z,15.80
2018-08-28T04:47:51.941Z,15.90
2018-08-28T04:50:20.687Z,16.10
2018-08-28T04:52:49.293Z,16.30
2018-08-28T04:55:18.602Z,16.50
2018-08-28T04:57:47.268Z,16.40
2018-08-28T05:00:16.220Z,16.30
2018-08-28T05:02:45.115Z,16.50
2018-08-28T05:05:13.992Z,16.60
2018-08-28T05:07:42.866Z,17.20
2018-08-28T05:10:11.595Z,16.80
2018-08-28T05:12:40.255Z,16.70
2018-08-28T05:15:09.535Z,16.70
2018-08-28T05:17:38.317Z,16.80
2018-08-28T05:20:07.378Z,16.90
2018-08-28T05:22:36.285Z,17.00
2018-08-28T05:25:05.013Z,17.00
2018-08-28T05:27:33.851Z,16.90
2018-08-28T05:30:04.176Z,16.80
2018-08-28T05:32:32.733Z,16.70
2018-08-28T05:35:01.389Z,16.70
2018-08-28T05:37:29.997Z,16.70
2018-08-28T05:39:58.848Z,16.50
2018-08-28T05:42:27.474Z,16.40
2018-08-28T05:44:56.253Z,16.10
2018-08-28T05:47:24.822Z,16.00
2018-08-28T05:49:53.619Z,16.10
2018-08-28T05:52:22.597Z,16.40
2018-08-28T05:54:51.291Z,16.70
2018-08-28T05:57:20.062Z,16.60
2018-08-28T05:59:48.638Z,16.30
2018-08-28T06:02:17.639Z,16.20
2018-08-28T06:04:46.334Z,16.20
2018-08-28T06:07:14.901Z,16.10
2018-08-28T06:09:44.568Z,16.10
2018-08-28T06:12:13.149Z,16.50
2018-08-28T06:14:42.851Z,16.70
2018-08-28T06:17:11.575Z,16.60
2018-08-28T06:19:41.210Z,16.70
2018-08-28T06:22:10.175Z,16.50
2018-08-28T06:24:39.005Z,16.80
2018-08-28T06:27:07.783Z,17.10
2018-08-28T06:29:36.509Z,16.90
2018-08-28T06:32:05.481Z,16.90
2018-08-28T06:34:34.273Z,17.00
2018-08-28T06:37:03.201Z,17.30
2018-08-28T06:39:31.792Z,17.20
2018-08-28T06:42:00.426Z,17.30
2018-08-28T06:44:29.444Z,17.30
2018-08-28T06:46:58.062Z,17.40
2018-08-28T06:49:27.486Z,17.30
2018-08-28T06:51:56.375Z,17.40
2018-08-28T06:54:25.006Z,17.40
2018-08-28T06:56:53.971Z,17.50
2018-08-28T06:59:22.689Z,17.50
2018-08-28T07:01:51.272Z,17.40
2018-08-28T07:04:19.856Z,17.20
2018-08-28T07:06:48.491Z,17.20
2018-08-28T07:09:17.188Z,17.40
2018-08-28T07:11:45.881Z,17.60
2018-08-28T07:14:15.076Z,17.50
2018-08-28T07:16:43.703Z,17.60
2018-08-28T07:19:12.504Z,17.70
2018-08-28T07:21:41.941Z,17.50
2018-08-28T07:24:11.148Z,17.20
2018-08-28T07:26:39.980Z,17.30
2018-08-28T07:29:08.817Z,17.10
2018-08-28T07:31:37.510Z,17.30
2018-08-28T07:34:06.180Z,17.20
2018-08-28T07:36:35.324Z,17.30
2018-08-28T07:39:06.363Z,17.50
2018-08-28T07:41:35.320Z,17.40
2018-08-28T07:44:04.167Z,17.30
2018-08-28T07:46:32.829Z,17.50
2018-08-28T07:49:01.825Z,17.90
2018-08-28T07:51:30.567Z,17.70
2018-08-28T07:53:59.787Z,17.70
2018-08-28T07:56:28.455Z,17.70
2018-08-28T07:58:57.884Z,17.90
2018-08-28T08:01:26.771Z,17.70
2018-08-28T08:03:55.446Z,17.80
2018-08-28T08:06:24.290Z,18.00
2018-08-28T08:08:54.174Z,17.90
2018-08-28T08:11:22.682Z,18.30
2018-08-28T08:13:51.361Z,18.00
2018-08-28T08:16:20.008Z,17.80
2018-08-28T08:18:48.580Z,17.80
2018-08-28T08:21:17.337Z,17.70
2018-08-28T08:23:46.300Z,17.70
2018-08-28T08:26:15.107Z,18.20
2018-08-28T08:28:43.720Z,18.30
2018-08-28T08:31:12.940Z,18.20
2018-08-28T08:33:41.977Z,18.00
2018-08-28T08:36:10.604Z,17.80
2018-08-28T08:38:39.307Z,17.80
2018-08-28T08:41:08.291Z,18.20
2018-08-28T08:43:36.873Z,18.30
2018-08-28T08:46:05.719Z,18.70
2018-08-28T08:48:34.651Z,18.80
2018-08-28T08:51:03.589Z,18.90
2018-08-28T08:53:32.329Z,18.90
2018-08-28T08:56:01.631Z,18.90
2018-08-28T08:58:30.979Z,18.90
2018-08-28T09:01:00.666Z,18.60
2018-08-28T09:03:29.886Z,18.40
2018-08-28T09:05:58.945Z,18.60
2018-08-28T09:08:27.701Z,18.90
2018-08-28T09:10:56.313Z,19.10
2018-08-28T09:13:25.246Z,19.00
2018-08-28T09:15:54.413Z,19.10
2018-08-28T09:18:23.265Z,19.10
2018-08-28T09:20:52.151Z,19.20
2018-08-28T09:23:20.698Z,19.20
2018-08-28T09:25:49.617Z,19.10
2018-08-28T09:28:18.476Z,19.10
2018-08-28T09:30:47.215Z,19.10
2018-08-28T09:33:15.911Z,19.30
2018-08-28T09:35:44.448Z,19.20
2018-08-28T09:38:13.068Z,19.00
2018-08-28T09:40:41.684Z,19.20
2018-08-28T09:43:10.274Z,19.30
2018-08-28T09:45:39.012Z,19.30
2018-08-28T09:48:07.702Z,19.20
2018-08-28T09:50:37.000Z,19.30
2018-08-28T09:53:06.127Z,19.50
2018-08-28T09:55:35.003Z,19.50
2018-08-28T09:58:03.663Z,19.40
2018-08-28T10:00:36.472Z,19.30
2018-08-28T10:03:05.687Z,19.50
2018-08-28T10:05:34.522Z,19.60
2018-08-28T10:08:03.113Z,19.60
2018-08-28T10:10:31.981Z,19.50
2018-08-28T10:13:00.661Z,19.40
2018-08-28T10:15:30.278Z,19.30
2018-08-28T10:17:58.916Z,19.20
2018-08-28T10:20:27.536Z,19.00
2018-08-28T10:22:56.641Z,19.00
2018-08-28T10:25:25.335Z,19.00
2018-08-28T10:27:53.888Z,18.90
2018-08-28T10:30:22.519Z,18.90
2018-08-28T10:32:51.084Z,18.80
2018-08-28T10:35:19.671Z,18.70
2018-08-28T10:37:48.374Z,18.70
2018-08-28T10:40:17.296Z,18.70
2018-08-28T10:42:46.092Z,19.10
2018-08-28T10:45:14.883Z,19.10
2018-08-28T10:47:43.830Z,19.00
2018-08-28T10:50:12.545Z,19.20
2018-08-28T10:52:41.179Z,19.40
2018-08-28T10:55:09.907Z,19.60
2018-08-28T10:57:39.046Z,19.80
2018-08-28T11:00:07.720Z,19.70
2018-08-28T11:02:36.503Z,19.40
2018-08-28T11:05:05.485Z,19.50
2018-08-28T11:07:34.044Z,19.70
2018-08-28T11:10:02.870Z,19.80
2018-08-28T11:12:31.510Z,19.80
2018-08-28T11:15:00.096Z,19.80
2018-08-28T11:17:28.985Z,19.80
2018-08-28T11:19:57.977Z,19.90
2018-08-28T11:22:26.922Z,19.70
2018-08-28T11:24:55.816Z,19.50
2018-08-28T11:27:24.349Z,19.40
2018-08-28T11:29:52.977Z,19.30
2018-08-28T11:32:21.790Z,19.30
2018-08-28T11:34:51.449Z,19.20
2018-08-28T11:37:20.331Z,19.70
2018-08-28T11:39:49.502Z,19.80
2018-08-28T11:42:18.291Z,19.60
2018-08-28T11:44:47.121Z,19.40
2018-08-28T11:47:16.183Z,19.50
2018-08-28T11:49:44.685Z,19.60
2018-08-28T11:52:13.834Z,19.60
2018-08-28T11:54:42.640Z,19.80
2018-08-28T11:57:11.323Z,19.90
2018-08-28T11:59:39.900Z,20.00
2018-08-28T12:02:09.348Z,20.10
2018-08-28T12:04:37.824Z,20.20
2018-08-28T12:07:06.850Z,20.00
2018-08-28T12:09:35.866Z,19.80
2018-08-28T12:12:04.476Z,19.90
2018-08-28T12:14:33.122Z,19.60
2018-08-28T12:17:01.779Z,19.90
2018-08-28T12:19:30.722Z,19.80
2018-08-28T12:21:59.716Z,19.60
2018-08-28T12:24:28.477Z,19.80
2018-08-28T12:26:57.087Z,19.90
2018-08-28T12:29:26.662Z,19.80
2018-08-28T12:31:55.399Z,19.90
2018-08-28T12:34:23.943Z,19.80
2018-08-28T12:36:52.657Z,19.70
2018-08-28T12:39:21.198Z,19.60
2018-08-28T12:41:50.417Z,19.60
2018-08-28T12:44:19.126Z,19.70
2018-08-28T12:46:47.955Z,19.70
2018-08-28T12:49:16.624Z,19.60
2018-08-28T12:51:45.227Z,19.80
2018-08-28T12:54:13.888Z,19.90
2018-08-28T12:56:42.720Z,19.80
2018-08-28T12:59:11.651Z,19.60
2018-08-28T13:01:40.337Z,19.70
2018-08-28T13:04:08.950Z,19.70
2018-08-28T13:06:37.581Z,19.60
2018-08-28T13:09:07.257Z,19.50
2018-08-28T13:11:36.569Z,19.50
2018-08-28T13:14:05.150Z,19.60
2018-08-28T13:16:33.900Z,19.60
2018-08-28T13:19:02.730Z,19.40
2018-08-28T13:21:31.737Z,19.70
2018-08-28T13:24:01.033Z,19.40
2018-08-28T13:26:29.703Z,19.30
2018-08-28T13:28:58.291Z,19.60
2018-08-28T13:31:26.903Z,19.70
2018-08-28T13:33:55.866Z,19.40
2018-08-28T13:36:24.416Z,19.60
2018-08-28T13:38:53.300Z,19.80
2018-08-28T13:41:21.987Z,19.80
2018-08-28T13:43:50.630Z,19.80
2018-08-28T13:46:19.322Z,19.60
2018-08-28T13:48:47.937Z,19.50
2018-08-28T13:51:16.802Z,19.90
2018-08-28T13:53:45.874Z,20.00
2018-08-28T13:56:14.827Z,20.20
2018-08-28T13:58:43.506Z,20.20
2018-08-28T14:01:12.503Z,20.30
2018-08-28T14:03:41.338Z,20.30
2018-08-28T14:06:09.900Z,20.40
2018-08-28T14:08:38.610Z,20.40
2018-08-28T14:11:07.511Z,20.50
2018-08-28T14:13:36.863Z,20.40
2018-08-28T14:16:05.425Z,20.10
2018-08-28T14:18:35.783Z,20.00
2018-08-28T14:21:04.663Z,20.00
2018-08-28T14:23:33.269Z,19.80
2018-08-28T14:26:02.206Z,19.80
2018-08-28T14:28:30.913Z,20.20
2018-08-28T14:30:59.724Z,20.10
2018-08-28T14:33:28.454Z,20.00
2018-08-28T14:35:57.101Z,20.30
2018-08-28T14:38:25.671Z,20.40
2018-08-28T14:40:55.366Z,20.40
2018-08-28T14:43:25.328Z,20.30
2018-08-28T14:45:54.220Z,20.00
2018-08-28T14:48:23.017Z,19.90
2018-08-28T14:50:51.620Z,19.80
2018-08-28T14:53:20.526Z,19.70
2018-08-28T14:55:50.110Z,19.60
2018-08-28T14:58:18.711Z,19.60
2018-08-28T15:00:47.500Z,19.60
2018-08-28T15:03:16.282Z,19.60
2018-08-28T15:05:45.196Z,20.00
2018-08-28T15:08:14.202Z,19.90
2018-08-28T15:10:43.551Z,19.70
2018-08-28T15:13:12.112Z,19.60
2018-08-28T15:15:40.724Z,19.60
2018-08-28T15:18:09.852Z,19.60
2018-08-28T15:20:38.553Z,19.90
2018-08-28T15:23:07.424Z,20.00
2018-08-28T15:25:36.054Z,19.80
2018-08-28T15:28:04.917Z,19.70
2018-08-28T15:30:33.842Z,19.80
2018-08-28T15:33:02.729Z,19.70
2018-08-28T15:35:31.462Z,19.80
2018-08-28T15:38:00.337Z,19.90
2018-08-28T15:40:28.958Z,19.80
2018-08-28T15:42:57.906Z,19.60
2018-08-28T15:45:26.537Z,19.60
2018-08-28T15:47:55.485Z,19.60
2018-08-28T15:50:25.064Z,19.60
2018-08-28T15:52:54.188Z,19.60
2018-08-28T15:55:23.063Z,19.60
2018-08-28T15:57:51.900Z,20.00
2018-08-28T16:00:20.695Z,20.00
2018-08-28T16:02:49.253Z,20.10
2018-08-28T16:05:17.809Z,20.10
2018-08-28T16:07:47.380Z,19.90
2018-08-28T16:10:17.003Z,19.70
2018-08-28T16:12:45.856Z,19.60
2018-08-28T16:15:14.522Z,19.60
2018-08-28T16:17:43.303Z,19.50
2018-08-28T16:20:12.005Z,19.70
2018-08-28T16:22:45.588Z,19.60
2018-08-28T16:25:14.180Z,19.50
2018-08-28T16:27:43.074Z,19.50
2018-08-28T16:30:11.673Z,19.40
2018-08-28T16:32:40.225Z,19.30
2018-08-28T16:35:09.665Z,19.30
2018-08-28T16:37:38.226Z,19.20
2018-08-28T16:40:06.897Z,19.20
2018-08-28T16:42:35.871Z,19.30
2018-08-28T16:45:04.461Z,19.20
2018-08-28T16:47:33.234Z,19.20
2018-08-28T16:50:02.284Z,19.10
2018-08-28T16:52:30.982Z,19.10
2018-08-28T16:54:59.580Z,19.10
2018-08-28T16:57:28.884Z,19.20
2018-08-28T16:59:57.871Z,19.10
2018-08-28T17:02:26.452Z,19.20
2018-08-28T17:04:55.624Z,19.30
2018-08-28T17:07:24.413Z,19.50
2018-08-28T17:09:53.268Z,19.30
2018-08-28T17:12:22.059Z,19.30
2018-08-28T17:14:50.909Z,19.30
2018-08-28T17:17:20.136Z,19.30
2018-08-28T17:19:48.819Z,19.20
2018-08-28T17:22:17.344Z,19.10
2018-08-28T17:24:46.288Z,19.00
2018-08-28T17:27:14.999Z,19.00
2018-08-28T17:29:43.626Z,18.90
2018-08-28T17:32:12.991Z,18.90
2018-08-28T17:34:41.672Z,18.90
2018-08-28T17:37:10.598Z,18.90
2018-08-28T17:39:39.272Z,18.80
2018-08-28T17:42:07.840Z,18.90
2018-08-28T17:44:36.541Z,18.80
2018-08-28T17:47:05.471Z,18.70
2018-08-28T17:49:34.224Z,18.60
2018-08-28T17:52:02.788Z,18.60
2018-08-28T17:54:31.403Z,18.50
2018-08-28T17:57:01.097Z,18.50
2018-08-28T17:59:29.832Z,18.40
2018-08-28T18:01:58.578Z,18.30
2018-08-28T18:04:27.366Z,18.20
2018-08-28T18:06:56.400Z,18.20
2018-08-28T18:09:25.018Z,18.10
2018-08-28T18:11:54.362Z,18.00
2018-08-28T18:14:22.928Z,17.90
2018-08-28T18:16:51.510Z,17.90
2018-08-28T18:19:20.132Z,17.80
2018-08-28T18:21:48.756Z,17.80
2018-08-28T18:24:17.448Z,17.70
2018-08-28T18:26:46.022Z,17.70
2018-08-28T18:29:14.603Z,17.70
2018-08-28T18:31:43.600Z,17.60
2018-08-28T18:34:13.633Z,17.50
2018-08-28T18:36:42.337Z,17.50
2018-08-28T18:39:10.977Z,17.40
2018-08-28T18:41:39.775Z,17.40
2018-08-28T18:44:08.736Z,17.30
2018-08-28T18:46:37.506Z,17.20
2018-08-28T18:49:06.153Z,17.20
2018-08-28T18:51:35.065Z,17.10
2018-08-28T18:54:03.824Z,17.00
2018-08-28T18:56:33.812Z,17.00
2018-08-28T18:59:02.721Z,16.90
2018-08-28T19:01:31.289Z,16.80
2018-08-28T19:03:59.814Z,16.80
2018-08-28T19:06:29.278Z,16.70
2018-08-28T19:08:58.283Z,16.70
2018-08-28T19:11:26.663Z,16.60
2018-08-28T19:13:55.506Z,16.60
2018-08-28T19:16:24.100Z,16.50
2018-08-28T19:18:52.682Z,16.50
2018-08-28T19:21:21.192Z,16.50
2018-08-28T19:23:49.744Z,16.40
2018-08-28T19:26:18.274Z,16.40
2018-08-28T19:28:46.826Z,16.40
2018-08-28T19:31:15.406Z,16.30
2018-08-28T19:33:44.284Z,16.30
2018-08-28T19:36:12.836Z,16.30
2018-08-28T19:38:41.736Z,16.20
2018-08-28T19:41:10.401Z,16.20
2018-08-28T19:43:39.092Z,16.20
2018-08-28T19:46:07.805Z,16.10
2018-08-28T19:48:37.023Z,16.10
2018-08-28T19:51:05.601Z,16.10
2018-08-28T19:53:34.398Z,16.30
2018-08-28T19:56:03.158Z,16.40
2018-08-28T19:58:32.029Z,16.30
2018-08-28T20:01:02.261Z,16.20
2018-08-28T20:03:31.097Z,16.10
2018-08-28T20:05:59.656Z,16.00
2018-08-28T20:08:28.360Z,15.90
2018-08-28T20:10:57.379Z,15.90
2018-08-28T20:13:26.020Z,15.90
2018-08-28T20:15:54.554Z,15.80
2018-08-28T20:18:23.891Z,15.80
2018-08-28T20:20:52.550Z,15.80
2018-08-28T20:23:21.360Z,15.70
2018-08-28T20:25:49.882Z,15.70
2018-08-28T20:28:18.459Z,15.70
2018-08-28T20:30:46.998Z,15.60
2018-08-28T20:33:15.753Z,15.50
2018-08-28T20:35:44.861Z,15.50
2018-08-28T20:38:13.551Z,15.50
2018-08-28T20:40:42.138Z,15.60
2018-08-28T20:43:10.642Z,15.60
2018-08-28T20:45:39.793Z,15.40
2018-08-28T20:48:08.366Z,15.30
2018-08-28T20:50:36.921Z,15.30
2018-08-28T20:53:06.149Z,15.30
2018-08-28T20:55:34.772Z,15.20
2018-08-28T20:58:03.644Z,15.20
2018-08-28T21:00:35.516Z,15.20
2018-08-28T21:03:05.281Z,15.20
2018-08-28T21:05:33.840Z,15.20
2018-08-28T21:08:02.796Z,15.20
2018-08-28T21:10:31.790Z,15.20
2018-08-28T21:13:00.634Z,15.20
2018-08-28T21:15:29.170Z,15.20
2018-08-28T21:17:57.698Z,15.30
2018-08-28T21:20:26.236Z,15.30
2018-08-28T21:22:54.805Z,15.30
2018-08-28T21:25:23.359Z,15.20
2018-08-28T21:27:52.010Z,15.20
2018-08-28T21:30:20.497Z,15.20
2018-08-28T21:32:49.042Z,15.20
2018-08-28T21:35:17.971Z,15.20
2018-08-28T21:37:46.858Z,15.10
2018-08-28T21:40:15.414Z,15.10
2018-08-28T21:42:44.149Z,15.10
2018-08-28T21:45:12.689Z,15.20
2018-08-28T21:47:41.234Z,15.20
2018-08-28T21:50:09.846Z,15.10
2018-08-28T21:52:38.358Z,15.10
2018-08-28T21:55:06.893Z,15.10
2018-08-28T21:57:35.449Z,15.10
2018-08-28T22:00:04.584Z,15.00
2018-08-28T22:02:33.123Z,14.90
2018-08-28T22:05:01.687Z,15.00
2018-08-28T22:07:35.495Z,15.10
2018-08-28T22:10:04.198Z,15.10
2018-08-28T22:12:32.782Z,15.10
2018-08-28T22:15:01.513Z,15.10
2018-08-28T22:17:30.153Z,15.00
2018-08-28T22:20:00.190Z,15.10
2018-08-28T22:22:28.795Z,15.10
2018-08-28T22:24:57.316Z,15.00
2018-08-28T22:27:25.826Z,15.00
2018-08-28T22:29:54.610Z,15.00
2018-08-28T22:32:23.349Z,15.00
2018-08-28T22:34:52.607Z,15.00
2018-08-28T22:37:21.576Z,14.90
2018-08-28T22:39:50.252Z,14.90
2018-08-28T22:42:18.790Z,14.80
2018-08-28T22:44:47.525Z,14.80
2018-08-28T22:47:16.152Z,15.00
2018-08-28T22:49:44.712Z,14.70
2018-08-28T22:52:13.254Z,14.70
2018-08-28T22:54:42.173Z,14.50
2018-08-28T22:57:10.778Z,14.60
2018-08-28T22:59:39.311Z,14.70
2018-08-28T23:02:08.154Z,14.80
2018-08-28T23:04:36.748Z,14.80
2018-08-28T23:07:05.488Z,14.80
2018-08-28T23:09:34.210Z,14.70
2018-08-28T23:12:03.202Z,14.70
2018-08-28T23:14:31.873Z,14.60
2018-08-28T23:17:00.693Z,14.60
2018-08-28T23:19:29.514Z,14.50
2018-08-28T23:21:58.052Z,14.70
2018-08-28T23:24:27.230Z,14.50
2018-08-28T23:26:56.053Z,14.50
2018-08-28T23:29:24.723Z,14.60
2018-08-28T23:31:53.249Z,14.60
2018-08-28T23:34:21.931Z,14.60
2018-08-28T23:36:50.425Z,14.50
2018-08-28T23:39:19.285Z,14.40
2018-08-28T23:41:48.199Z,14.40
2018-08-28T23:44:17.198Z,14.50
2018-08-28T23:46:46.071Z,14.40
2018-08-28T23:49:15.022Z,14.40
2018-08-28T23:51:43.592Z,14.40
2018-08-28T23:54:12.202Z,14.50
2018-08-28T23:56:40.740Z,14.30
2018-08-28T23:59:09.283Z,14.30
